sensor_id;sensor_type;location;lat;lon;timestamp;pressure;altitude;pressure_sealevel;temperature;humidity
69879;BME280;57161;43.136;24.706;2023-02-19T00:01:18;99262.81;;;8.46;58.81
69879;BME280;57161;43.136;24.706;2023-02-19T00:03:50;99228.69;;;8.21;58.70
69879;BME280;57161;43.136;24.706;2023-02-19T00:06:17;99248.50;;;8.36;58.62
69879;BME280;57161;43.136;24.706;2023-02-19T00:08:43;99243.75;;;8.31;58.53
69879;BME280;57161;43.136;24.706;2023-02-19T00:11:12;99244.22;;;8.35;58.94
69879;BME280;57161;43.136;24.706;2023-02-19T00:13:40;99216.28;;;8.03;59.04
69879;BME280;57161;43.136;24.706;2023-02-19T00:16:07;99197.34;;;8.02;58.78
69879;BME280;57161;43.136;24.706;2023-02-19T00:18:33;99233.13;;;8.30;58.87
69879;BME280;57161;43.136;24.706;2023-02-19T00:20:59;99235.25;;;8.42;58.33
69879;BME280;57161;43.136;24.706;2023-02-19T00:23:25;99263.97;;;8.69;58.21
69879;BME280;57161;43.136;24.706;2023-02-19T00:25:53;99252.66;;;8.62;58.15
69879;BME280;57161;43.136;24.706;2023-02-19T00:28:19;99270.66;;;8.80;58.02
69879;BME280;57161;43.136;24.706;2023-02-19T00:30:45;99210.06;;;8.35;58.01
69879;BME280;57161;43.136;24.706;2023-02-19T00:33:10;99281.34;;;8.76;58.04
69879;BME280;57161;43.136;24.706;2023-02-19T00:35:36;99256.00;;;8.60;57.76
69879;BME280;57161;43.136;24.706;2023-02-19T00:38:02;99242.91;;;8.55;57.87
69879;BME280;57161;43.136;24.706;2023-02-19T00:40:28;99268.78;;;8.69;57.99
69879;BME280;57161;43.136;24.706;2023-02-19T00:42:54;99257.66;;;8.69;57.77
69879;BME280;57161;43.136;24.706;2023-02-19T00:45:20;99274.31;;;8.88;57.45
69879;BME280;57161;43.136;24.706;2023-02-19T00:47:45;99248.00;;;8.70;57.71
69879;BME280;57161;43.136;24.706;2023-02-19T00:50:11;99238.91;;;8.69;57.72
69879;BME280;57161;43.136;24.706;2023-02-19T00:52:36;99234.50;;;8.74;57.57
69879;BME280;57161;43.136;24.706;2023-02-19T00:55:02;99214.69;;;8.64;57.42
69879;BME280;57161;43.136;24.706;2023-02-19T00:57:29;99208.56;;;8.66;57.00
69879;BME280;57161;43.136;24.706;2023-02-19T00:59:54;99233.16;;;8.81;56.93
69879;BME280;57161;43.136;24.706;2023-02-19T01:02:20;99211.69;;;8.76;56.96
69879;BME280;57161;43.136;24.706;2023-02-19T01:04:45;99232.94;;;8.79;57.22
69879;BME280;57161;43.136;24.706;2023-02-19T01:07:11;99268.88;;;8.95;57.10
69879;BME280;57161;43.136;24.706;2023-02-19T01:09:36;99215.47;;;8.46;57.53
69879;BME280;57161;43.136;24.706;2023-02-19T01:12:06;99266.22;;;8.71;57.87
69879;BME280;57161;43.136;24.706;2023-02-19T01:14:32;99258.88;;;8.55;58.30
69879;BME280;57161;43.136;24.706;2023-02-19T01:16:57;99206.50;;;8.16;58.31
69879;BME280;57161;43.136;24.706;2023-02-19T01:19:23;99263.56;;;8.47;58.56
69879;BME280;57161;43.136;24.706;2023-02-19T01:21:49;99207.72;;;8.01;59.08
69879;BME280;57161;43.136;24.706;2023-02-19T01:24:14;99202.94;;;7.96;59.08
69879;BME280;57161;43.136;24.706;2023-02-19T01:26:41;99263.91;;;8.37;59.21
69879;BME280;57161;43.136;24.706;2023-02-19T01:29:06;99261.72;;;8.30;59.26
69879;BME280;57161;43.136;24.706;2023-02-19T01:31:32;99272.38;;;8.26;59.47
69879;BME280;57161;43.136;24.706;2023-02-19T01:34:00;99269.91;;;8.23;59.39
69879;BME280;57161;43.136;24.706;2023-02-19T01:36:27;99274.28;;;8.18;59.47
69879;BME280;57161;43.136;24.706;2023-02-19T01:38:54;99273.22;;;8.02;60.06
69879;BME280;57161;43.136;24.706;2023-02-19T01:41:22;99251.59;;;7.90;60.12
69879;BME280;57161;43.136;24.706;2023-02-19T01:44:06;99253.97;;;7.80;60.02
69879;BME280;57161;43.136;24.706;2023-02-19T01:46:34;99267.78;;;7.91;60.31
69879;BME280;57161;43.136;24.706;2023-02-19T01:51:40;99273.75;;;7.76;60.40
69879;BME280;57161;43.136;24.706;2023-02-19T01:54:11;99274.13;;;7.67;60.61
69879;BME280;57161;43.136;24.706;2023-02-19T01:56:39;99309.03;;;7.87;60.63
69879;BME280;57161;43.136;24.706;2023-02-19T01:59:06;99248.41;;;7.37;60.75
69879;BME280;57161;43.136;24.706;2023-02-19T02:01:32;99319.66;;;7.89;60.69
69879;BME280;57161;43.136;24.706;2023-02-19T02:03:57;99317.56;;;7.70;60.79
69879;BME280;57161;43.136;24.706;2023-02-19T02:06:29;99322.31;;;7.75;60.88
69879;BME280;57161;43.136;24.706;2023-02-19T02:08:57;99327.06;;;7.80;60.77
69879;BME280;57161;43.136;24.706;2023-02-19T02:11:46;99331.00;;;7.91;60.54
69879;BME280;57161;43.136;24.706;2023-02-19T02:14:13;99315.81;;;7.92;60.44
69879;BME280;57161;43.136;24.706;2023-02-19T02:22:41;99321.25;;;8.03;60.10
69879;BME280;57161;43.136;24.706;2023-02-19T02:25:37;99325.63;;;7.98;60.25
69879;BME280;57161;43.136;24.706;2023-02-19T02:31:32;99303.81;;;7.78;60.31
69879;BME280;57161;43.136;24.706;2023-02-19T02:34:14;99318.72;;;7.80;60.45
69879;BME280;57161;43.136;24.706;2023-02-19T02:36:44;99340.63;;;7.90;60.50
69879;BME280;57161;43.136;24.706;2023-02-19T02:39:13;99328.34;;;7.79;60.61
69879;BME280;57161;43.136;24.706;2023-02-19T02:41:45;99333.41;;;7.81;60.71
69879;BME280;57161;43.136;24.706;2023-02-19T02:44:13;99329.38;;;7.76;60.75
69879;BME280;57161;43.136;24.706;2023-02-19T02:46:44;99325.31;;;7.77;60.63
69879;BME280;57161;43.136;24.706;2023-02-19T02:49:20;99362.97;;;7.78;60.94
69879;BME280;57161;43.136;24.706;2023-02-19T02:51:50;99351.06;;;7.83;60.94
69879;BME280;57161;43.136;24.706;2023-02-19T02:54:23;99342.25;;;7.79;60.85
69879;BME280;57161;43.136;24.706;2023-02-19T02:57:09;99349.56;;;7.82;60.87
69879;BME280;57161;43.136;24.706;2023-02-19T02:59:39;99311.41;;;7.53;60.74
69879;BME280;57161;43.136;24.706;2023-02-19T03:02:13;99351.81;;;7.84;60.81
69879;BME280;57161;43.136;24.706;2023-02-19T03:04:48;99339.66;;;7.87;60.83
69879;BME280;57161;43.136;24.706;2023-02-19T03:08:11;99324.75;;;7.85;60.76
69879;BME280;57161;43.136;24.706;2023-02-19T03:10:42;99337.84;;;7.90;60.68
69879;BME280;57161;43.136;24.706;2023-02-19T03:13:20;99320.09;;;8.17;58.89
69879;BME280;57161;43.136;24.706;2023-02-19T03:16:09;99326.69;;;8.38;58.42
69879;BME280;57161;43.136;24.706;2023-02-19T03:18:57;99308.53;;;8.69;56.80
69879;BME280;57161;43.136;24.706;2023-02-19T03:21:43;99324.59;;;9.14;55.98
69879;BME280;57161;43.136;24.706;2023-02-19T03:24:11;99292.25;;;9.38;54.43
69879;BME280;57161;43.136;24.706;2023-02-19T03:27:01;99322.25;;;9.77;53.03
69879;BME280;57161;43.136;24.706;2023-02-19T03:29:30;99290.78;;;9.63;52.94
69879;BME280;57161;43.136;24.706;2023-02-19T03:32:04;99298.09;;;9.66;53.13
69879;BME280;57161;43.136;24.706;2023-02-19T03:34:36;99346.59;;;10.16;52.79
69879;BME280;57161;43.136;24.706;2023-02-19T03:37:16;99357.78;;;10.16;52.63
69879;BME280;57161;43.136;24.706;2023-02-19T03:39:43;99363.19;;;10.27;52.82
69879;BME280;57161;43.136;24.706;2023-02-19T03:44:48;99335.94;;;10.54;51.42
69879;BME280;57161;43.136;24.706;2023-02-19T03:47:22;99344.22;;;10.60;51.17
69879;BME280;57161;43.136;24.706;2023-02-19T03:50:57;99339.09;;;10.85;50.51
69879;BME280;57161;43.136;24.706;2023-02-19T03:58:31;99303.78;;;11.36;48.08
69879;BME280;57161;43.136;24.706;2023-02-19T04:01:49;99340.59;;;11.69;48.18
69879;BME280;57161;43.136;24.706;2023-02-19T04:03:57;99339.25;;;11.83;47.78
69879;BME280;57161;43.136;24.706;2023-02-19T04:06:29;99299.22;;;11.47;47.85
69879;BME280;57161;43.136;24.706;2023-02-19T04:08:59;99333.63;;;11.83;47.80
69879;BME280;57161;43.136;24.706;2023-02-19T04:11:26;99307.00;;;11.40;47.89
69879;BME280;57161;43.136;24.706;2023-02-19T04:14:00;99353.34;;;11.78;47.83
69879;BME280;57161;43.136;24.706;2023-02-19T04:16:29;99333.00;;;11.77;47.16
69879;BME280;57161;43.136;24.706;2023-02-19T04:19:00;99316.13;;;11.62;47.15
69879;BME280;57161;43.136;24.706;2023-02-19T04:21:29;99323.88;;;11.77;47.08
69879;BME280;57161;43.136;24.706;2023-02-19T04:23:56;99302.66;;;11.60;47.24
69879;BME280;57161;43.136;24.706;2023-02-19T04:26:24;99341.66;;;12.08;46.77
69879;BME280;57161;43.136;24.706;2023-02-19T04:28:50;99290.09;;;11.75;46.67
69879;BME280;57161;43.136;24.706;2023-02-19T04:31:16;99359.84;;;11.93;47.06
69879;BME280;57161;43.136;24.706;2023-02-19T04:33:41;99352.38;;;11.96;47.14
69879;BME280;57161;43.136;24.706;2023-02-19T04:36:09;99347.38;;;12.02;46.98
69879;BME280;57161;43.136;24.706;2023-02-19T04:38:35;99338.66;;;12.06;47.04
69879;BME280;57161;43.136;24.706;2023-02-19T04:41:00;99343.91;;;12.17;46.78
69879;BME280;57161;43.136;24.706;2023-02-19T04:43:26;99307.75;;;11.90;46.87
69879;BME280;57161;43.136;24.706;2023-02-19T04:45:51;99340.78;;;12.20;46.55
69879;BME280;57161;43.136;24.706;2023-02-19T04:48:17;99345.03;;;12.14;46.45
69879;BME280;57161;43.136;24.706;2023-02-19T04:50:42;99347.16;;;12.28;46.32
69879;BME280;57161;43.136;24.706;2023-02-19T04:53:08;99281.66;;;11.95;46.25
69879;BME280;57161;43.136;24.706;2023-02-19T04:55:37;99370.97;;;12.43;46.40
69879;BME280;57161;43.136;24.706;2023-02-19T04:58:03;99342.06;;;12.19;46.63
69879;BME280;57161;43.136;24.706;2023-02-19T05:00:29;99309.63;;;11.95;46.36
69879;BME280;57161;43.136;24.706;2023-02-19T05:02:55;99361.00;;;12.34;46.11
69879;BME280;57161;43.136;24.706;2023-02-19T05:05:20;99372.81;;;12.40;46.19
69879;BME280;57161;43.136;24.706;2023-02-19T05:07:46;99358.28;;;12.13;46.88
69879;BME280;57161;43.136;24.706;2023-02-19T05:10:11;99354.00;;;12.20;46.38
69879;BME280;57161;43.136;24.706;2023-02-19T05:12:37;99386.59;;;12.30;46.79
69879;BME280;57161;43.136;24.706;2023-02-19T05:15:02;99343.78;;;11.94;46.58
69879;BME280;57161;43.136;24.706;2023-02-19T05:17:28;99365.75;;;12.11;46.55
69879;BME280;57161;43.136;24.706;2023-02-19T05:19:56;99379.22;;;12.20;46.55
69879;BME280;57161;43.136;24.706;2023-02-19T05:22:22;99356.53;;;12.02;46.64
69879;BME280;57161;43.136;24.706;2023-02-19T05:24:47;99404.88;;;12.31;46.83
69879;BME280;57161;43.136;24.706;2023-02-19T05:27:13;99402.09;;;12.31;46.88
69879;BME280;57161;43.136;24.706;2023-02-19T05:29:38;99397.94;;;12.25;47.00
69879;BME280;57161;43.136;24.706;2023-02-19T05:32:04;99398.63;;;12.18;47.27
69879;BME280;57161;43.136;24.706;2023-02-19T05:34:29;99383.22;;;12.03;47.44
69879;BME280;57161;43.136;24.706;2023-02-19T05:36:54;99351.19;;;11.84;47.43
69879;BME280;57161;43.136;24.706;2023-02-19T05:39:20;99412.72;;;12.25;47.26
69879;BME280;57161;43.136;24.706;2023-02-19T05:41:45;99337.53;;;11.80;47.20
69879;BME280;57161;43.136;24.706;2023-02-19T05:44:11;99414.59;;;12.30;47.23
69879;BME280;57161;43.136;24.706;2023-02-19T05:46:36;99422.66;;;12.34;47.29
69879;BME280;57161;43.136;24.706;2023-02-19T05:49:02;99428.97;;;12.27;47.53
69879;BME280;57161;43.136;24.706;2023-02-19T05:51:28;99400.84;;;12.12;47.67
69879;BME280;57161;43.136;24.706;2023-02-19T05:53:54;99365.25;;;11.91;47.56
69879;BME280;57161;43.136;24.706;2023-02-19T05:56:33;99422.25;;;12.30;47.80
69879;BME280;57161;43.136;24.706;2023-02-19T05:59:00;99427.38;;;12.39;47.61
69879;BME280;57161;43.136;24.706;2023-02-19T06:01:29;99411.00;;;12.22;47.59
69879;BME280;57161;43.136;24.706;2023-02-19T06:03:55;99430.31;;;12.33;47.98
69879;BME280;57161;43.136;24.706;2023-02-19T06:06:21;99442.91;;;12.48;47.65
69879;BME280;57161;43.136;24.706;2023-02-19T06:08:48;99441.84;;;12.58;47.61
69879;BME280;57161;43.136;24.706;2023-02-19T06:11:15;99397.09;;;12.38;47.46
69879;BME280;57161;43.136;24.706;2023-02-19T06:13:40;99405.22;;;12.56;47.30
69879;BME280;57161;43.136;24.706;2023-02-19T06:16:07;99409.59;;;12.73;47.16
69879;BME280;57161;43.136;24.706;2023-02-19T06:18:33;99425.31;;;12.83;46.76
69879;BME280;57161;43.136;24.706;2023-02-19T06:21:02;99436.03;;;12.92;47.04
69879;BME280;57161;43.136;24.706;2023-02-19T06:23:28;99392.25;;;12.82;46.36
69879;BME280;57161;43.136;24.706;2023-02-19T06:25:54;99419.97;;;13.01;46.40
69879;BME280;57161;43.136;24.706;2023-02-19T06:28:28;99412.72;;;13.05;46.32
69879;BME280;57161;43.136;24.706;2023-02-19T06:30:53;99427.00;;;13.23;46.12
69879;BME280;57161;43.136;24.706;2023-02-19T06:33:19;99431.69;;;13.28;46.03
69879;BME280;57161;43.136;24.706;2023-02-19T06:35:44;99404.56;;;13.23;45.65
69879;BME280;57161;43.136;24.706;2023-02-19T06:38:10;99426.50;;;13.55;45.23
69879;BME280;57161;43.136;24.706;2023-02-19T06:40:35;99436.03;;;13.59;45.39
69879;BME280;57161;43.136;24.706;2023-02-19T06:43:01;99460.22;;;13.77;45.43
69879;BME280;57161;43.136;24.706;2023-02-19T06:45:26;99470.16;;;13.94;45.08
69879;BME280;57161;43.136;24.706;2023-02-19T06:47:52;99393.94;;;13.59;45.18
69879;BME280;57161;43.136;24.706;2023-02-19T06:50:17;99454.03;;;14.09;45.01
69879;BME280;57161;43.136;24.706;2023-02-19T06:52:43;99449.34;;;14.12;45.09
69879;BME280;57161;43.136;24.706;2023-02-19T06:55:08;99402.56;;;13.92;44.78
69879;BME280;57161;43.136;24.706;2023-02-19T06:57:34;99466.78;;;14.33;44.92
69879;BME280;57161;43.136;24.706;2023-02-19T06:59:59;99457.75;;;14.42;44.61
69879;BME280;57161;43.136;24.706;2023-02-19T07:02:25;99435.09;;;14.25;44.31
69879;BME280;57161;43.136;24.706;2023-02-19T07:04:50;99483.09;;;14.50;44.54
69879;BME280;57161;43.136;24.706;2023-02-19T07:07:16;99459.84;;;14.50;44.40
69879;BME280;57161;43.136;24.706;2023-02-19T07:09:41;99465.25;;;14.55;44.29
69879;BME280;57161;43.136;24.706;2023-02-19T07:12:07;99478.38;;;14.68;44.42
69879;BME280;57161;43.136;24.706;2023-02-19T07:14:32;99486.19;;;14.77;44.21
69879;BME280;57161;43.136;24.706;2023-02-19T07:16:58;99472.53;;;14.74;44.52
69879;BME280;57161;43.136;24.706;2023-02-19T07:19:23;99483.00;;;14.88;44.26
69879;BME280;57161;43.136;24.706;2023-02-19T07:21:49;99452.66;;;14.71;44.09
69879;BME280;57161;43.136;24.706;2023-02-19T07:24:14;99445.34;;;14.68;43.95
69879;BME280;57161;43.136;24.706;2023-02-19T07:26:40;99484.47;;;14.97;44.00
69879;BME280;57161;43.136;24.706;2023-02-19T07:29:05;99468.13;;;15.03;43.51
69879;BME280;57161;43.136;24.706;2023-02-19T07:31:32;99483.28;;;15.15;44.22
69879;BME280;57161;43.136;24.706;2023-02-19T07:33:57;99498.44;;;15.20;44.17
69879;BME280;57161;43.136;24.706;2023-02-19T07:36:23;99446.03;;;14.92;44.05
69879;BME280;57161;43.136;24.706;2023-02-19T07:38:53;99497.22;;;15.38;44.08
69879;BME280;57161;43.136;24.706;2023-02-19T07:41:19;99500.56;;;15.44;44.07
69879;BME280;57161;43.136;24.706;2023-02-19T07:43:44;99505.28;;;15.42;44.22
69879;BME280;57161;43.136;24.706;2023-02-19T07:46:12;99505.66;;;15.46;44.02
69879;BME280;57161;43.136;24.706;2023-02-19T07:48:39;99459.81;;;15.13;44.33
69879;BME280;57161;43.136;24.706;2023-02-19T07:51:06;99490.59;;;15.51;44.24
69879;BME280;57161;43.136;24.706;2023-02-19T07:53:33;99462.75;;;15.30;44.40
69879;BME280;57161;43.136;24.706;2023-02-19T07:56:01;99475.97;;;15.45;44.47
69879;BME280;57161;43.136;24.706;2023-02-19T07:58:27;99477.41;;;15.61;44.35
69879;BME280;57161;43.136;24.706;2023-02-19T08:00:53;99507.25;;;15.56;44.62
69879;BME280;57161;43.136;24.706;2023-02-19T08:03:18;99513.06;;;15.58;44.58
69879;BME280;57161;43.136;24.706;2023-02-19T08:05:44;99476.34;;;15.49;44.80
69879;BME280;57161;43.136;24.706;2023-02-19T08:08:12;99465.28;;;15.43;44.72
69879;BME280;57161;43.136;24.706;2023-02-19T08:10:40;99502.78;;;15.86;44.72
69879;BME280;57161;43.136;24.706;2023-02-19T08:13:26;99467.94;;;15.74;44.75
69879;BME280;57161;43.136;24.706;2023-02-19T08:16:07;99501.38;;;16.02;44.47
69879;BME280;57161;43.136;24.706;2023-02-19T08:18:36;99455.94;;;15.73;44.39
69879;BME280;57161;43.136;24.706;2023-02-19T08:21:01;99495.50;;;16.08;44.62
69879;BME280;57161;43.136;24.706;2023-02-19T08:23:27;99488.16;;;16.12;44.23
69879;BME280;57161;43.136;24.706;2023-02-19T08:25:58;99474.25;;;16.07;44.61
69879;BME280;57161;43.136;24.706;2023-02-19T08:28:24;99487.78;;;16.33;44.12
69879;BME280;57161;43.136;24.706;2023-02-19T08:30:50;99437.00;;;16.16;44.07
69879;BME280;57161;43.136;24.706;2023-02-19T08:33:17;99484.38;;;16.35;44.04
69879;BME280;57161;43.136;24.706;2023-02-19T08:35:43;99455.50;;;16.27;43.69
69879;BME280;57161;43.136;24.706;2023-02-19T08:38:11;99473.44;;;16.56;43.57
69879;BME280;57161;43.136;24.706;2023-02-19T08:40:37;99473.97;;;16.62;43.62
69879;BME280;57161;43.136;24.706;2023-02-19T08:43:05;99464.16;;;16.63;43.60
69879;BME280;57161;43.136;24.706;2023-02-19T08:45:31;99476.47;;;16.75;42.64
69879;BME280;57161;43.136;24.706;2023-02-19T08:47:57;99466.19;;;16.70;42.74
69879;BME280;57161;43.136;24.706;2023-02-19T08:50:23;99420.38;;;16.45;42.69
69879;BME280;57161;43.136;24.706;2023-02-19T08:52:49;99459.19;;;16.89;42.91
69879;BME280;57161;43.136;24.706;2023-02-19T08:55:14;99399.13;;;16.61;42.19
69879;BME280;57161;43.136;24.706;2023-02-19T08:57:40;99414.22;;;16.91;41.77
69879;BME280;57161;43.136;24.706;2023-02-19T09:00:06;99453.47;;;16.96;41.18
69879;BME280;57161;43.136;24.706;2023-02-19T09:02:33;99412.50;;;16.78;41.41
69879;BME280;57161;43.136;24.706;2023-02-19T09:04:59;99393.06;;;16.65;41.31
69879;BME280;57161;43.136;24.706;2023-02-19T09:07:25;99440.34;;;16.91;41.42
69879;BME280;57161;43.136;24.706;2023-02-19T09:09:50;99440.53;;;16.93;41.33
69879;BME280;57161;43.136;24.706;2023-02-19T09:12:15;99432.13;;;17.03;41.37
69879;BME280;57161;43.136;24.706;2023-02-19T09:14:41;99411.03;;;17.04;41.08
69879;BME280;57161;43.136;24.706;2023-02-19T09:17:08;99453.34;;;17.21;41.12
69879;BME280;57161;43.136;24.706;2023-02-19T09:19:34;99437.16;;;17.22;41.51
69879;BME280;57161;43.136;24.706;2023-02-19T09:22:00;99398.31;;;17.13;40.94
69879;BME280;57161;43.136;24.706;2023-02-19T09:24:25;99415.03;;;17.55;40.32
69879;BME280;57161;43.136;24.706;2023-02-19T09:26:53;99436.19;;;17.63;40.20
69879;BME280;57161;43.136;24.706;2023-02-19T09:29:21;99424.44;;;17.57;39.72
69879;BME280;57161;43.136;24.706;2023-02-19T09:31:48;99436.50;;;17.67;39.78
69879;BME280;57161;43.136;24.706;2023-02-19T09:34:13;99399.63;;;17.38;39.58
69879;BME280;57161;43.136;24.706;2023-02-19T09:36:39;99405.97;;;17.56;39.54
69879;BME280;57161;43.136;24.706;2023-02-19T09:39:07;99424.63;;;17.69;39.00
69879;BME280;57161;43.136;24.706;2023-02-19T09:41:36;99437.47;;;17.80;39.43
69879;BME280;57161;43.136;24.706;2023-02-19T09:44:06;99451.66;;;17.62;39.46
69879;BME280;57161;43.136;24.706;2023-02-19T09:46:46;99437.91;;;17.76;39.31
69879;BME280;57161;43.136;24.706;2023-02-19T09:49:18;99428.25;;;17.79;39.50
69879;BME280;57161;43.136;24.706;2023-02-19T09:51:55;99393.56;;;17.69;39.27
69879;BME280;57161;43.136;24.706;2023-02-19T09:54:27;99442.03;;;18.12;38.86
69879;BME280;57161;43.136;24.706;2023-02-19T09:56:55;99418.69;;;18.11;38.60
69879;BME280;57161;43.136;24.706;2023-02-19T09:59:28;99448.63;;;18.24;38.52
69879;BME280;57161;43.136;24.706;2023-02-19T10:02:00;99397.63;;;17.85;38.48
69879;BME280;57161;43.136;24.706;2023-02-19T10:04:26;99387.38;;;17.90;38.30
69879;BME280;57161;43.136;24.706;2023-02-19T10:06:52;99424.34;;;18.21;38.37
69879;BME280;57161;43.136;24.706;2023-02-19T10:09:24;99390.41;;;18.21;38.22
69879;BME280;57161;43.136;24.706;2023-02-19T10:11:53;99406.03;;;18.22;38.30
69879;BME280;57161;43.136;24.706;2023-02-19T10:14:34;99409.78;;;18.24;38.48
69879;BME280;57161;43.136;24.706;2023-02-19T10:17:03;99412.78;;;18.46;38.49
69879;BME280;57161;43.136;24.706;2023-02-19T10:19:30;99412.78;;;18.55;38.21
69879;BME280;57161;43.136;24.706;2023-02-19T10:21:56;99415.31;;;18.71;38.01
69879;BME280;57161;43.136;24.706;2023-02-19T10:24:26;99377.63;;;18.29;38.44
69879;BME280;57161;43.136;24.706;2023-02-19T10:26:53;99395.22;;;18.57;38.37
69879;BME280;57161;43.136;24.706;2023-02-19T10:29:19;99350.22;;;18.32;38.28
69879;BME280;57161;43.136;24.706;2023-02-19T10:31:46;99391.66;;;18.66;38.42
69879;BME280;57161;43.136;24.706;2023-02-19T10:34:21;99393.13;;;18.67;38.83
69879;BME280;57161;43.136;24.706;2023-02-19T10:36:51;99348.44;;;18.46;38.64
69879;BME280;57161;43.136;24.706;2023-02-19T10:41:54;99386.00;;;18.66;39.24
69879;BME280;57161;43.136;24.706;2023-02-19T10:44:34;99395.81;;;18.65;38.88
69879;BME280;57161;43.136;24.706;2023-02-19T10:47:02;99355.25;;;18.05;39.05
69879;BME280;57161;43.136;24.706;2023-02-19T10:49:32;99402.47;;;18.31;39.42
69879;BME280;57161;43.136;24.706;2023-02-19T10:52:11;99379.41;;;18.25;39.59
69879;BME280;57161;43.136;24.706;2023-02-19T10:55:12;99385.22;;;18.27;39.90
69879;BME280;57161;43.136;24.706;2023-02-19T10:57:38;99372.09;;;18.12;40.01
69879;BME280;57161;43.136;24.706;2023-02-19T11:02:39;99384.91;;;18.33;40.15
69879;BME280;57161;43.136;24.706;2023-02-19T11:07:42;99370.59;;;18.21;40.27
69879;BME280;57161;43.136;24.706;2023-02-19T11:10:28;99366.63;;;18.24;39.83
69879;BME280;57161;43.136;24.706;2023-02-19T11:13:00;99370.31;;;18.17;39.87
69879;BME280;57161;43.136;24.706;2023-02-19T11:15:30;99314.31;;;17.86;39.99
69879;BME280;57161;43.136;24.706;2023-02-19T11:23:31;99345.31;;;18.42;38.98
69879;BME280;57161;43.136;24.706;2023-02-19T11:26:04;99296.66;;;18.15;38.62
69879;BME280;57161;43.136;24.706;2023-02-19T11:28:38;99357.69;;;18.56;38.83
69879;BME280;57161;43.136;24.706;2023-02-19T11:31:26;99350.97;;;18.52;38.95
69879;BME280;57161;43.136;24.706;2023-02-19T11:33:58;99331.31;;;18.54;38.90
69879;BME280;57161;43.136;24.706;2023-02-19T11:36:29;99322.06;;;18.53;38.79
69879;BME280;57161;43.136;24.706;2023-02-19T11:38:56;99339.22;;;18.75;38.90
69879;BME280;57161;43.136;24.706;2023-02-19T12:10:02;99285.72;;;19.50;37.83
69879;BME280;57161;43.136;24.706;2023-02-19T12:12:35;99281.41;;;19.59;37.30
69879;BME280;57161;43.136;24.706;2023-02-19T12:20:19;99286.94;;;19.78;37.84
69879;BME280;57161;43.136;24.706;2023-02-19T12:43:06;99236.16;;;19.09;38.76
69879;BME280;57161;43.136;24.706;2023-02-19T12:45:41;99236.63;;;19.36;38.34
69879;BME280;57161;43.136;24.706;2023-02-19T12:48:33;99236.41;;;19.44;38.05
69879;BME280;57161;43.136;24.706;2023-02-19T12:51:06;99177.56;;;19.11;38.28
69879;BME280;57161;43.136;24.706;2023-02-19T12:54:33;99206.78;;;19.35;38.18
69879;BME280;57161;43.136;24.706;2023-02-19T12:56:38;99222.91;;;19.33;38.15
69879;BME280;57161;43.136;24.706;2023-02-19T12:59:22;99203.22;;;19.35;38.62
69879;BME280;57161;43.136;24.706;2023-02-19T13:02:04;99193.78;;;19.42;38.38
69879;BME280;57161;43.136;24.706;2023-02-19T13:07:27;99144.19;;;18.88;38.33
69879;BME280;57161;43.136;24.706;2023-02-19T13:09:59;99190.66;;;19.16;38.08
69879;BME280;57161;43.136;24.706;2023-02-19T13:12:33;99145.56;;;18.78;38.29
69879;BME280;57161;43.136;24.706;2023-02-19T13:15:02;99174.38;;;18.96;38.80
69879;BME280;57161;43.136;24.706;2023-02-19T13:17:40;99186.31;;;18.94;39.23
69879;BME280;57161;43.136;24.706;2023-02-19T13:20:36;99135.63;;;18.67;38.87
69879;BME280;57161;43.136;24.706;2023-02-19T13:23:18;99181.28;;;19.14;38.87
69879;BME280;57161;43.136;24.706;2023-02-19T13:32:15;99183.63;;;19.17;38.55
69879;BME280;57161;43.136;24.706;2023-02-19T13:37:34;99115.50;;;18.73;38.96
69879;BME280;57161;43.136;24.706;2023-02-19T13:40:16;99137.09;;;18.99;39.35
69879;BME280;57161;43.136;24.706;2023-02-19T13:42:51;99147.22;;;19.02;38.89
69879;BME280;57161;43.136;24.706;2023-02-19T13:45:26;99149.03;;;18.98;39.27
69879;BME280;57161;43.136;24.706;2023-02-19T13:50:31;99160.00;;;19.03;38.89
69879;BME280;57161;43.136;24.706;2023-02-19T13:52:59;99157.72;;;18.90;39.37
69879;BME280;57161;43.136;24.706;2023-02-19T13:55:43;99151.81;;;18.76;39.69
69879;BME280;57161;43.136;24.706;2023-02-19T14:14:43;99109.91;;;18.84;39.35
69879;BME280;57161;43.136;24.706;2023-02-19T14:19:55;99132.31;;;19.02;39.52
69879;BME280;57161;43.136;24.706;2023-02-19T14:31:08;99123.31;;;18.84;39.48
69879;BME280;57161;43.136;24.706;2023-02-19T14:33:38;99106.88;;;18.61;39.97
69879;BME280;57161;43.136;24.706;2023-02-19T14:41:53;99102.09;;;18.73;39.72
69879;BME280;57161;43.136;24.706;2023-02-19T14:44:30;99099.53;;;18.77;40.10
69879;BME280;57161;43.136;24.706;2023-02-19T14:47:14;99096.47;;;18.64;40.02
69879;BME280;57161;43.136;24.706;2023-02-19T14:49:47;99111.94;;;18.63;40.31
69879;BME280;57161;43.136;24.706;2023-02-19T14:52:35;99092.19;;;18.53;40.35
69879;BME280;57161;43.136;24.706;2023-02-19T14:55:12;99106.00;;;18.58;40.50
69879;BME280;57161;43.136;24.706;2023-02-19T14:57:40;99088.19;;;18.46;40.78
69879;BME280;57161;43.136;24.706;2023-02-19T15:00:24;99098.16;;;18.47;40.97
69879;BME280;57161;43.136;24.706;2023-02-19T15:02:52;99080.06;;;18.31;41.45
69879;BME280;57161;43.136;24.706;2023-02-19T15:05:31;99074.50;;;18.12;41.70
69879;BME280;57161;43.136;24.706;2023-02-19T15:08:00;99086.31;;;18.29;41.83
69879;BME280;57161;43.136;24.706;2023-02-19T15:10:28;99078.31;;;18.26;41.90
69879;BME280;57161;43.136;24.706;2023-02-19T15:13:00;99066.41;;;18.27;41.77
69879;BME280;57161;43.136;24.706;2023-02-19T15:15:29;99086.75;;;18.36;41.55
69879;BME280;57161;43.136;24.706;2023-02-19T15:17:58;99072.78;;;18.28;41.61
69879;BME280;57161;43.136;24.706;2023-02-19T15:20:27;99052.47;;;18.10;41.79
69879;BME280;57161;43.136;24.706;2023-02-19T15:22:54;99075.63;;;18.28;41.86